sensor_id;sensor_type;location;lat;lon;timestamp;P1;durP1;ratioP1;P2;durP2;ratioP2
23588;SDS011;11972;48.078;11.876;2022-09-01T00:02:24;27.40;;;24.50;;
23588;SDS011;11972;48.078;11.876;2022-09-01T00:06:29;28.38;;;25.25;;
23588;SDS011;11972;48.078;11.876;2022-09-01T00:10:31;27.23;;;24.23;;
23588;SDS011;11972;48.078;11.876;2022-09-01T00:14:33;27.52;;;24.70;;
23588;SDS011;11972;48.078;11.876;2022-09-01T00:18:37;26.90;;;23.80;;
23588;SDS011;11972;48.078;11.876;2022-09-01T00:22:37;28.50;;;24.07;;
23588;SDS011;11972;48.078;11.876;2022-09-01T00:26:37;25.70;;;23.00;;
23588;SDS011;11972;48.078;11.876;2022-09-01T00:30:38;26.85;;;23.95;;
23588;SDS011;11972;48.078;11.876;2022-09-01T00:34:39;27.20;;;23.67;;
23588;SDS011;11972;48.078;11.876;2022-09-01T00:38:39;27.90;;;24.48;;
23588;SDS011;11972;48.078;11.876;2022-09-01T00:42:40;27.40;;;24.50;;
23588;SDS011;11972;48.078;11.876;2022-09-01T00:46:43;28.52;;;24.20;;
23588;SDS011;11972;48.078;11.876;2022-09-01T00:50:46;31.20;;;24.08;;
23588;SDS011;11972;48.078;11.876;2022-09-01T00:54:48;30.77;;;23.60;;
23588;SDS011;11972;48.078;11.876;2022-09-01T00:58:52;27.00;;;23.52;;
23588;SDS011;11972;48.078;11.876;2022-09-01T01:02:53;25.52;;;22.80;;
23588;SDS011;11972;48.078;11.876;2022-09-01T01:06:56;26.15;;;23.33;;
23588;SDS011;11972;48.078;11.876;2022-09-01T01:11:06;26.60;;;22.58;;
23588;SDS011;11972;48.078;11.876;2022-09-01T01:15:09;25.73;;;22.85;;
23588;SDS011;11972;48.078;11.876;2022-09-01T01:19:19;24.42;;;21.92;;
23588;SDS011;11972;48.078;11.876;2022-09-01T01:23:44;24.48;;;21.88;;
23588;SDS011;11972;48.078;11.876;2022-09-01T01:32:15;26.02;;;22.55;;
23588;SDS011;11972;48.078;11.876;2022-09-01T01:36:20;27.43;;;22.33;;
23588;SDS011;11972;48.078;11.876;2022-09-01T01:40:31;23.75;;;20.65;;
23588;SDS011;11972;48.078;11.876;2022-09-01T01:44:31;26.27;;;22.10;;
23588;SDS011;11972;48.078;11.876;2022-09-01T01:48:33;27.20;;;23.00;;
23588;SDS011;11972;48.078;11.876;2022-09-01T01:52:36;26.85;;;23.05;;
23588;SDS011;11972;48.078;11.876;2022-09-01T01:56:37;25.05;;;22.23;;
23588;SDS011;11972;48.078;11.876;2022-09-01T02:00:38;27.27;;;22.60;;
23588;SDS011;11972;48.078;11.876;2022-09-01T02:04:39;24.85;;;20.80;;
23588;SDS011;11972;48.078;11.876;2022-09-01T02:08:39;28.48;;;21.45;;
23588;SDS011;11972;48.078;11.876;2022-09-01T02:12:40;25.60;;;21.02;;
23588;SDS011;11972;48.078;11.876;2022-09-01T02:16:42;23.70;;;20.90;;
23588;SDS011;11972;48.078;11.876;2022-09-01T02:20:43;27.93;;;20.63;;
23588;SDS011;11972;48.078;11.876;2022-09-01T02:24:44;22.77;;;20.38;;
23588;SDS011;11972;48.078;11.876;2022-09-01T02:28:48;21.77;;;18.90;;
23588;SDS011;11972;48.078;11.876;2022-09-01T02:32:48;22.75;;;19.50;;
23588;SDS011;11972;48.078;11.876;2022-09-01T02:36:50;22.83;;;19.63;;
23588;SDS011;11972;48.078;11.876;2022-09-01T02:40:52;23.10;;;18.65;;
23588;SDS011;11972;48.078;11.876;2022-09-01T02:44:53;20.42;;;18.30;;
23588;SDS011;11972;48.078;11.876;2022-09-01T02:48:54;19.85;;;17.38;;
23588;SDS011;11972;48.078;11.876;2022-09-01T02:52:55;20.85;;;17.40;;
23588;SDS011;11972;48.078;11.876;2022-09-01T02:56:56;22.67;;;18.02;;
23588;SDS011;11972;48.078;11.876;2022-09-01T03:00:57;26.00;;;17.63;;
23588;SDS011;11972;48.078;11.876;2022-09-01T03:04:58;22.20;;;17.27;;
23588;SDS011;11972;48.078;11.876;2022-09-01T03:08:59;23.85;;;17.15;;
23588;SDS011;11972;48.078;11.876;2022-09-01T03:13:04;23.98;;;17.60;;
23588;SDS011;11972;48.078;11.876;2022-09-01T03:17:07;19.10;;;16.85;;
23588;SDS011;11972;48.078;11.876;2022-09-01T03:21:08;19.00;;;15.77;;
23588;SDS011;11972;48.078;11.876;2022-09-01T03:25:09;20.70;;;16.65;;
23588;SDS011;11972;48.078;11.876;2022-09-01T03:29:09;20.73;;;16.70;;
23588;SDS011;11972;48.078;11.876;2022-09-01T03:33:10;21.35;;;17.60;;
23588;SDS011;11972;48.078;11.876;2022-09-01T03:37:10;19.75;;;15.88;;
23588;SDS011;11972;48.078;11.876;2022-09-01T03:41:11;23.27;;;16.83;;
23588;SDS011;11972;48.078;11.876;2022-09-01T03:45:12;19.90;;;16.40;;
23588;SDS011;11972;48.078;11.876;2022-09-01T03:49:14;20.58;;;16.75;;
23588;SDS011;11972;48.078;11.876;2022-09-01T03:53:23;23.67;;;17.10;;
23588;SDS011;11972;48.078;11.876;2022-09-01T03:57:26;24.88;;;17.15;;
23588;SDS011;11972;48.078;11.876;2022-09-01T04:01:29;28.02;;;18.17;;
23588;SDS011;11972;48.078;11.876;2022-09-01T04:05:37;23.37;;;17.60;;
23588;SDS011;11972;48.078;11.876;2022-09-01T04:09:41;22.85;;;17.48;;
23588;SDS011;11972;48.078;11.876;2022-09-01T04:13:43;22.67;;;17.60;;
23588;SDS011;11972;48.078;11.876;2022-09-01T04:17:44;20.45;;;17.05;;
23588;SDS011;11972;48.078;11.876;2022-09-01T04:22:04;20.90;;;17.58;;
23588;SDS011;11972;48.078;11.876;2022-09-01T04:26:08;21.00;;;16.40;;
23588;SDS011;11972;48.078;11.876;2022-09-01T04:30:10;21.95;;;16.08;;
23588;SDS011;11972;48.078;11.876;2022-09-01T04:34:11;19.58;;;16.15;;
23588;SDS011;11972;48.078;11.876;2022-09-01T04:38:15;18.40;;;15.57;;
23588;SDS011;11972;48.078;11.876;2022-09-01T04:42:17;17.25;;;15.05;;
23588;SDS011;11972;48.078;11.876;2022-09-01T04:46:20;33.42;;;22.80;;
23588;SDS011;11972;48.078;11.876;2022-09-01T04:50:21;41.42;;;25.92;;
23588;SDS011;11972;48.078;11.876;2022-09-01T04:54:22;45.75;;;28.00;;
23588;SDS011;11972;48.078;11.876;2022-09-01T04:58:23;46.50;;;29.50;;
23588;SDS011;11972;48.078;11.876;2022-09-01T05:02:23;53.85;;;31.48;;
23588;SDS011;11972;48.078;11.876;2022-09-01T05:06:26;50.55;;;30.33;;
23588;SDS011;11972;48.078;11.876;2022-09-01T05:10:28;46.58;;;28.15;;
23588;SDS011;11972;48.078;11.876;2022-09-01T05:14:29;40.00;;;25.77;;
23588;SDS011;11972;48.078;11.876;2022-09-01T05:18:29;42.72;;;27.35;;
23588;SDS011;11972;48.078;11.876;2022-09-01T05:22:30;39.37;;;26.60;;
23588;SDS011;11972;48.078;11.876;2022-09-01T05:26:30;36.00;;;24.85;;
23588;SDS011;11972;48.078;11.876;2022-09-01T05:30:33;32.65;;;25.02;;
23588;SDS011;11972;48.078;11.876;2022-09-01T05:34:36;33.17;;;24.23;;
23588;SDS011;11972;48.078;11.876;2022-09-01T05:38:38;29.02;;;23.80;;
23588;SDS011;11972;48.078;11.876;2022-09-01T05:42:42;29.67;;;23.38;;
23588;SDS011;11972;48.078;11.876;2022-09-01T05:46:43;26.42;;;22.40;;
23588;SDS011;11972;48.078;11.876;2022-09-01T05:50:43;27.50;;;22.65;;
23588;SDS011;11972;48.078;11.876;2022-09-01T05:54:44;23.92;;;20.80;;
23588;SDS011;11972;48.078;11.876;2022-09-01T05:58:46;24.33;;;20.65;;
23588;SDS011;11972;48.078;11.876;2022-09-01T06:02:47;22.90;;;20.55;;
23588;SDS011;11972;48.078;11.876;2022-09-01T06:06:47;21.38;;;19.27;;
23588;SDS011;11972;48.078;11.876;2022-09-01T06:10:48;21.67;;;19.48;;
23588;SDS011;11972;48.078;11.876;2022-09-01T06:14:50;20.92;;;18.85;;
23588;SDS011;11972;48.078;11.876;2022-09-01T06:18:52;19.92;;;17.83;;
23588;SDS011;11972;48.078;11.876;2022-09-01T06:22:53;18.83;;;16.85;;
23588;SDS011;11972;48.078;11.876;2022-09-01T06:26:53;17.20;;;15.70;;
23588;SDS011;11972;48.078;11.876;2022-09-01T06:30:54;16.60;;;15.10;;
23588;SDS011;11972;48.078;11.876;2022-09-01T06:34:56;15.65;;;14.23;;
23588;SDS011;11972;48.078;11.876;2022-09-01T06:38:59;14.10;;;12.80;;
23588;SDS011;11972;48.078;11.876;2022-09-01T06:43:00;15.00;;;13.68;;
23588;SDS011;11972;48.078;11.876;2022-09-01T06:47:06;14.30;;;13.00;;
23588;SDS011;11972;48.078;11.876;2022-09-01T06:51:07;13.88;;;12.77;;
23588;SDS011;11972;48.078;11.876;2022-09-01T06:55:09;12.65;;;11.57;;
23588;SDS011;11972;48.078;11.876;2022-09-01T06:59:10;12.65;;;11.50;;
23588;SDS011;11972;48.078;11.876;2022-09-01T07:03:14;13.02;;;11.88;;
23588;SDS011;11972;48.078;11.876;2022-09-01T07:07:15;13.40;;;12.20;;
23588;SDS011;11972;48.078;11.876;2022-09-01T07:11:16;11.68;;;10.77;;
23588;SDS011;11972;48.078;11.876;2022-09-01T07:15:22;13.18;;;12.07;;
23588;SDS011;11972;48.078;11.876;2022-09-01T07:19:23;10.90;;;9.98;;
23588;SDS011;11972;48.078;11.876;2022-09-01T07:23:25;9.80;;;9.00;;
23588;SDS011;11972;48.078;11.876;2022-09-01T07:27:27;11.45;;;10.55;;
23588;SDS011;11972;48.078;11.876;2022-09-01T07:31:37;11.50;;;10.50;;
23588;SDS011;11972;48.078;11.876;2022-09-01T07:35:41;10.75;;;9.90;;
23588;SDS011;11972;48.078;11.876;2022-09-01T07:39:42;10.15;;;9.45;;
23588;SDS011;11972;48.078;11.876;2022-09-01T07:43:45;10.32;;;9.52;;
23588;SDS011;11972;48.078;11.876;2022-09-01T07:47:48;10.90;;;10.00;;
23588;SDS011;11972;48.078;11.876;2022-09-01T07:51:48;10.25;;;9.45;;
23588;SDS011;11972;48.078;11.876;2022-09-01T07:55:51;9.73;;;8.90;;
23588;SDS011;11972;48.078;11.876;2022-09-01T07:59:53;9.32;;;8.55;;
23588;SDS011;11972;48.078;11.876;2022-09-01T08:03:56;9.20;;;8.35;;
23588;SDS011;11972;48.078;11.876;2022-09-01T08:07:58;8.68;;;8.07;;
23588;SDS011;11972;48.078;11.876;2022-09-01T08:12:00;9.05;;;8.35;;
23588;SDS011;11972;48.078;11.876;2022-09-01T08:16:04;9.02;;;8.43;;
23588;SDS011;11972;48.078;11.876;2022-09-01T08:20:05;8.40;;;7.80;;
23588;SDS011;11972;48.078;11.876;2022-09-01T08:24:08;8.13;;;7.53;;
23588;SDS011;11972;48.078;11.876;2022-09-01T08:28:08;8.90;;;8.25;;
23588;SDS011;11972;48.078;11.876;2022-09-01T08:32:10;8.07;;;7.38;;
23588;SDS011;11972;48.078;11.876;2022-09-01T08:36:11;8.05;;;7.55;;
23588;SDS011;11972;48.078;11.876;2022-09-01T08:40:13;7.43;;;6.82;;
23588;SDS011;11972;48.078;11.876;2022-09-01T08:44:37;7.30;;;6.70;;
23588;SDS011;11972;48.078;11.876;2022-09-01T08:48:45;6.68;;;6.18;;
23588;SDS011;11972;48.078;11.876;2022-09-01T08:53:03;6.45;;;6.05;;
23588;SDS011;11972;48.078;11.876;2022-09-01T08:57:19;6.32;;;5.70;;
23588;SDS011;11972;48.078;11.876;2022-09-01T09:01:29;6.50;;;5.60;;
23588;SDS011;11972;48.078;11.876;2022-09-01T09:05:43;6.80;;;6.30;;
23588;SDS011;11972;48.078;11.876;2022-09-01T09:09:58;6.40;;;6.00;;
23588;SDS011;11972;48.078;11.876;2022-09-01T09:14:55;7.07;;;6.57;;
23588;SDS011;11972;48.078;11.876;2022-09-01T09:18:52;5.57;;;5.28;;
23588;SDS011;11972;48.078;11.876;2022-09-01T09:22:58;5.93;;;5.30;;
23588;SDS011;11972;48.078;11.876;2022-09-01T09:27:06;6.40;;;5.82;;
23588;SDS011;11972;48.078;11.876;2022-09-01T09:31:23;6.43;;;6.03;;
23588;SDS011;11972;48.078;11.876;2022-09-01T09:35:26;6.37;;;5.90;;
23588;SDS011;11972;48.078;11.876;2022-09-01T09:39:38;5.95;;;5.53;;
23588;SDS011;11972;48.078;11.876;2022-09-01T09:43:46;6.32;;;5.93;;
23588;SDS011;11972;48.078;11.876;2022-09-01T09:47:48;5.80;;;5.40;;
23588;SDS011;11972;48.078;11.876;2022-09-01T09:51:51;5.90;;;5.50;;
23588;SDS011;11972;48.078;11.876;2022-09-01T09:55:57;4.70;;;4.40;;
23588;SDS011;11972;48.078;11.876;2022-09-01T10:00:03;4.50;;;3.75;;
23588;SDS011;11972;48.078;11.876;2022-09-01T10:04:07;3.53;;;3.20;;
23588;SDS011;11972;48.078;11.876;2022-09-01T10:08:09;3.33;;;3.00;;
23588;SDS011;11972;48.078;11.876;2022-09-01T10:12:11;3.17;;;2.88;;
23588;SDS011;11972;48.078;11.876;2022-09-01T10:16:18;2.85;;;2.65;;
23588;SDS011;11972;48.078;11.876;2022-09-01T10:20:25;3.10;;;2.80;;
23588;SDS011;11972;48.078;11.876;2022-09-01T10:24:31;2.50;;;2.30;;
23588;SDS011;11972;48.078;11.876;2022-09-01T10:28:36;2.92;;;2.72;;
23588;SDS011;11972;48.078;11.876;2022-09-01T10:32:44;4.05;;;3.75;;
23588;SDS011;11972;48.078;11.876;2022-09-01T10:36:47;3.78;;;3.47;;
23588;SDS011;11972;48.078;11.876;2022-09-01T10:40:53;3.13;;;2.92;;
23588;SDS011;11972;48.078;11.876;2022-09-01T11:06:16;3.53;;;2.40;;
23588;SDS011;11972;48.078;11.876;2022-09-01T11:14:30;2.50;;;2.30;;
23588;SDS011;11972;48.078;11.876;2022-09-01T11:18:34;2.75;;;2.40;;
23588;SDS011;11972;48.078;11.876;2022-09-01T11:22:37;3.78;;;2.10;;
23588;SDS011;11972;48.078;11.876;2022-09-01T11:26:43;2.17;;;1.98;;
23588;SDS011;11972;48.078;11.876;2022-09-01T11:30:48;1.92;;;1.80;;
23588;SDS011;11972;48.078;11.876;2022-09-01T11:35:03;3.25;;;1.95;;
23588;SDS011;11972;48.078;11.876;2022-09-01T11:43:16;2.75;;;2.13;;
23588;SDS011;11972;48.078;11.876;2022-09-01T11:47:22;2.42;;;1.75;;
23588;SDS011;11972;48.078;11.876;2022-09-01T11:51:40;1.75;;;1.65;;
23588;SDS011;11972;48.078;11.876;2022-09-01T11:55:46;2.40;;;1.52;;
23588;SDS011;11972;48.078;11.876;2022-09-01T11:59:48;2.20;;;2.00;;
23588;SDS011;11972;48.078;11.876;2022-09-01T12:03:50;1.88;;;1.77;;
23588;SDS011;11972;48.078;11.876;2022-09-01T12:07:52;1.67;;;1.38;;
23588;SDS011;11972;48.078;11.876;2022-09-01T12:11:53;1.92;;;1.83;;
23588;SDS011;11972;48.078;11.876;2022-09-01T12:15:58;1.63;;;1.50;;
23588;SDS011;11972;48.078;11.876;2022-09-01T12:24:28;1.50;;;1.40;;
23588;SDS011;11972;48.078;11.876;2022-09-01T12:28:33;1.40;;;1.30;;
23588;SDS011;11972;48.078;11.876;2022-09-01T12:32:34;2.38;;;2.17;;
23588;SDS011;11972;48.078;11.876;2022-09-01T12:36:35;4.03;;;1.15;;
23588;SDS011;11972;48.078;11.876;2022-09-01T12:40:36;1.60;;;1.50;;
23588;SDS011;11972;48.078;11.876;2022-09-01T12:48:37;1.93;;;1.50;;
23588;SDS011;11972;48.078;11.876;2022-09-01T12:53:14;1.60;;;1.40;;
23588;SDS011;11972;48.078;11.876;2022-09-01T12:57:24;2.30;;;1.77;;
23588;SDS011;11972;48.078;11.876;2022-09-01T13:01:29;2.53;;;1.30;;
23588;SDS011;11972;48.078;11.876;2022-09-01T13:05:36;2.00;;;1.40;;
23588;SDS011;11972;48.078;11.876;2022-09-01T13:09:36;1.63;;;1.40;;
23588;SDS011;11972;48.078;11.876;2022-09-01T13:13:37;1.60;;;1.23;;
23588;SDS011;11972;48.078;11.876;2022-09-01T13:17:37;1.98;;;1.52;;
23588;SDS011;11972;48.078;11.876;2022-09-01T13:21:37;1.85;;;1.75;;
23588;SDS011;11972;48.078;11.876;2022-09-01T13:25:38;2.03;;;1.50;;
23588;SDS011;11972;48.078;11.876;2022-09-01T13:29:39;2.42;;;1.40;;
23588;SDS011;11972;48.078;11.876;2022-09-01T13:33:40;3.13;;;2.50;;
23588;SDS011;11972;48.078;11.876;2022-09-01T13:37:41;1.63;;;1.50;;
23588;SDS011;11972;48.078;11.876;2022-09-01T13:41:41;2.10;;;1.40;;
23588;SDS011;11972;48.078;11.876;2022-09-01T13:45:42;1.37;;;1.20;;
23588;SDS011;11972;48.078;11.876;2022-09-01T13:49:42;2.67;;;1.40;;
23588;SDS011;11972;48.078;11.876;2022-09-01T13:53:42;1.47;;;1.30;;
23588;SDS011;11972;48.078;11.876;2022-09-01T13:57:43;2.13;;;1.40;;
23588;SDS011;11972;48.078;11.876;2022-09-01T14:01:43;3.28;;;1.15;;
23588;SDS011;11972;48.078;11.876;2022-09-01T14:05:46;2.58;;;1.00;;
23588;SDS011;11972;48.078;11.876;2022-09-01T14:09:47;1.83;;;1.20;;
23588;SDS011;11972;48.078;11.876;2022-09-01T14:13:47;1.50;;;1.00;;
23588;SDS011;11972;48.078;11.876;2022-09-01T14:17:49;2.10;;;1.27;;
23588;SDS011;11972;48.078;11.876;2022-09-01T14:21:51;1.40;;;1.30;;
23588;SDS011;11972;48.078;11.876;2022-09-01T14:25:52;1.55;;;1.10;;
23588;SDS011;11972;48.078;11.876;2022-09-01T14:29:52;1.20;;;1.10;;
23588;SDS011;11972;48.078;11.876;2022-09-01T14:33:53;1.33;;;1.20;;
23588;SDS011;11972;48.078;11.876;2022-09-01T14:37:53;1.10;;;1.00;;
23588;SDS011;11972;48.078;11.876;2022-09-01T14:41:54;2.17;;;1.10;;
23588;SDS011;11972;48.078;11.876;2022-09-01T14:46:01;0.83;;;0.80;;
23588;SDS011;11972;48.078;11.876;2022-09-01T14:50:05;0.85;;;0.80;;
23588;SDS011;11972;48.078;11.876;2022-09-01T14:54:06;1.02;;;0.80;;
23588;SDS011;11972;48.078;11.876;2022-09-01T14:58:06;1.25;;;1.05;;
23588;SDS011;11972;48.078;11.876;2022-09-01T15:02:07;1.10;;;0.90;;
23588;SDS011;11972;48.078;11.876;2022-09-01T15:06:12;1.88;;;1.08;;
23588;SDS011;11972;48.078;11.876;2022-09-01T15:10:15;1.73;;;0.90;;
23588;SDS011;11972;48.078;11.876;2022-09-01T15:14:17;1.40;;;1.00;;
23588;SDS011;11972;48.078;11.876;2022-09-01T15:18:17;1.33;;;0.90;;
23588;SDS011;11972;48.078;11.876;2022-09-01T15:22:18;1.35;;;0.82;;
23588;SDS011;11972;48.078;11.876;2022-09-01T15:26:19;1.08;;;0.68;;
23588;SDS011;11972;48.078;11.876;2022-09-01T15:30:20;1.35;;;0.80;;
23588;SDS011;11972;48.078;11.876;2022-09-01T15:34:20;1.65;;;0.90;;
23588;SDS011;11972;48.078;11.876;2022-09-01T15:38:20;1.47;;;0.80;;
23588;SDS011;11972;48.078;11.876;2022-09-01T15:42:21;0.93;;;0.80;;
23588;SDS011;11972;48.078;11.876;2022-09-01T15:46:21;1.27;;;0.80;;
23588;SDS011;11972;48.078;11.876;2022-09-01T15:50:29;2.65;;;0.90;;
23588;SDS011;11972;48.078;11.876;2022-09-01T15:54:30;2.90;;;0.70;;
23588;SDS011;11972;48.078;11.876;2022-09-01T15:58:30;2.20;;;0.87;;
23588;SDS011;11972;48.078;11.876;2022-09-01T16:02:30;2.67;;;0.80;;
23588;SDS011;11972;48.078;11.876;2022-09-01T16:06:31;1.45;;;0.70;;
23588;SDS011;11972;48.078;11.876;2022-09-01T16:10:31;3.90;;;0.70;;
23588;SDS011;11972;48.078;11.876;2022-09-01T16:14:33;1.50;;;0.63;;
23588;SDS011;11972;48.078;11.876;2022-09-01T16:18:38;0.88;;;0.65;;
23588;SDS011;11972;48.078;11.876;2022-09-01T16:22:47;0.68;;;0.60;;
23588;SDS011;11972;48.078;11.876;2022-09-01T16:27:06;0.75;;;0.70;;
23588;SDS011;11972;48.078;11.876;2022-09-01T16:31:11;1.92;;;0.90;;
23588;SDS011;11972;48.078;11.876;2022-09-01T16:35:15;0.75;;;0.65;;
23588;SDS011;11972;48.078;11.876;2022-09-01T16:43:46;0.60;;;0.60;;
23588;SDS011;11972;48.078;11.876;2022-09-01T16:47:58;0.98;;;0.63;;
23588;SDS011;11972;48.078;11.876;2022-09-01T16:52:03;1.35;;;0.70;;
23588;SDS011;11972;48.078;11.876;2022-09-01T17:00:46;1.58;;;0.68;;
23588;SDS011;11972;48.078;11.876;2022-09-01T17:04:53;1.83;;;0.82;;
23588;SDS011;11972;48.078;11.876;2022-09-01T17:17:24;0.60;;;0.60;;
23588;SDS011;11972;48.078;11.876;2022-09-01T17:21:30;3.42;;;1.38;;
23588;SDS011;11972;48.078;11.876;2022-09-01T17:25:40;2.17;;;0.70;;
23588;SDS011;11972;48.078;11.876;2022-09-01T17:29:51;0.75;;;0.70;;
23588;SDS011;11972;48.078;11.876;2022-09-01T17:34:00;2.80;;;0.80;;
23588;SDS011;11972;48.078;11.876;2022-09-01T17:38:26;2.50;;;0.70;;
23588;SDS011;11972;48.078;11.876;2022-09-01T17:47:01;0.85;;;0.80;;
23588;SDS011;11972;48.078;11.876;2022-09-01T17:51:05;0.80;;;0.80;;
23588;SDS011;11972;48.078;11.876;2022-09-01T18:08:24;3.22;;;1.75;;
23588;SDS011;11972;48.078;11.876;2022-09-01T18:12:28;3.28;;;1.60;;
23588;SDS011;11972;48.078;11.876;2022-09-01T18:16:42;2.58;;;1.35;;
23588;SDS011;11972;48.078;11.876;2022-09-01T18:21:04;2.28;;;1.40;;
23588;SDS011;11972;48.078;11.876;2022-09-01T18:25:14;1.85;;;1.65;;
23588;SDS011;11972;48.078;11.876;2022-09-01T18:29:18;3.53;;;1.70;;
23588;SDS011;11972;48.078;11.876;2022-09-01T18:46:34;2.58;;;1.83;;
23588;SDS011;11972;48.078;11.876;2022-09-01T18:50:58;3.47;;;1.73;;
23588;SDS011;11972;48.078;11.876;2022-09-01T18:59:44;3.95;;;1.70;;
23588;SDS011;11972;48.078;11.876;2022-09-01T19:03:59;3.17;;;1.80;;
23588;SDS011;11972;48.078;11.876;2022-09-01T19:25:20;5.17;;;1.93;;
23588;SDS011;11972;48.078;11.876;2022-09-01T19:29:36;2.55;;;1.80;;
23588;SDS011;11972;48.078;11.876;2022-09-01T19:37:49;4.05;;;2.30;;
23588;SDS011;11972;48.078;11.876;2022-09-01T19:41:54;4.97;;;2.10;;
23588;SDS011;11972;48.078;11.876;2022-09-01T19:46:07;3.05;;;1.95;;
23588;SDS011;11972;48.078;11.876;2022-09-01T19:50:36;2.72;;;2.00;;
23588;SDS011;11972;48.078;11.876;2022-09-01T19:54:42;2.75;;;1.65;;
23588;SDS011;11972;48.078;11.876;2022-09-01T20:03:05;1.60;;;1.40;;
23588;SDS011;11972;48.078;11.876;2022-09-01T20:07:10;2.78;;;1.42;;
23588;SDS011;11972;48.078;11.876;2022-09-01T20:15:42;3.88;;;1.42;;
23588;SDS011;11972;48.078;11.876;2022-09-01T20:20:00;1.95;;;1.42;;
23588;SDS011;11972;48.078;11.876;2022-09-01T20:24:35;1.60;;;1.27;;
23588;SDS011;11972;48.078;11.876;2022-09-01T20:28:44;3.55;;;1.83;;
23588;SDS011;11972;48.078;11.876;2022-09-01T20:37:06;1.30;;;1.20;;
23588;SDS011;11972;48.078;11.876;2022-09-01T20:41:15;1.63;;;1.30;;
23588;SDS011;11972;48.078;11.876;2022-09-01T20:45:25;1.63;;;1.27;;
23588;SDS011;11972;48.078;11.876;2022-09-01T20:49:27;1.20;;;1.10;;
23588;SDS011;11972;48.078;11.876;2022-09-01T20:58:03;1.50;;;1.40;;
23588;SDS011;11972;48.078;11.876;2022-09-01T21:06:28;3.17;;;1.60;;
23588;SDS011;11972;48.078;11.876;2022-09-01T21:10:44;2.53;;;2.00;;
23588;SDS011;11972;48.078;11.876;2022-09-01T21:23:34;2.30;;;1.88;;
23588;SDS011;11972;48.078;11.876;2022-09-01T21:27:36;2.95;;;2.10;;
23588;SDS011;11972;48.078;11.876;2022-09-01T21:31:42;2.13;;;1.70;;
23588;SDS011;11972;48.078;11.876;2022-09-01T21:35:43;2.55;;;2.35;;
23588;SDS011;11972;48.078;11.876;2022-09-01T21:39:43;2.33;;;2.03;;
23588;SDS011;11972;48.078;11.876;2022-09-01T21:43:43;6.43;;;2.00;;
23588;SDS011;11972;48.078;11.876;2022-09-01T21:47:45;2.70;;;2.50;;
23588;SDS011;11972;48.078;11.876;2022-09-01T21:51:48;2.40;;;2.10;;
23588;SDS011;11972;48.078;11.876;2022-09-01T21:55:48;2.47;;;2.28;;
23588;SDS011;11972;48.078;11.876;2022-09-01T21:59:49;4.85;;;2.45;;
23588;SDS011;11972;48.078;11.876;2022-09-01T22:03:50;2.22;;;2.05;;
23588;SDS011;11972;48.078;11.876;2022-09-01T22:07:51;3.40;;;2.38;;
23588;SDS011;11972;48.078;11.876;2022-09-01T22:11:52;2.78;;;2.00;;
23588;SDS011;11972;48.078;11.876;2022-09-01T22:15:53;2.65;;;1.73;;
23588;SDS011;11972;48.078;11.876;2022-09-01T22:19:53;3.22;;;1.90;;
23588;SDS011;11972;48.078;11.876;2022-09-01T22:23:54;3.23;;;2.20;;
23588;SDS011;11972;48.078;11.876;2022-09-01T22:27:56;2.13;;;1.90;;
23588;SDS011;11972;48.078;11.876;2022-09-01T22:31:57;2.72;;;2.22;;
23588;SDS011;11972;48.078;11.876;2022-09-01T22:35:59;2.28;;;2.08;;
23588;SDS011;11972;48.078;11.876;2022-09-01T22:39:59;3.17;;;2.10;;
23588;SDS011;11972;48.078;11.876;2022-09-01T22:44:00;2.35;;;2.15;;
23588;SDS011;11972;48.078;11.876;2022-09-01T22:48:02;2.90;;;2.30;;
23588;SDS011;11972;48.078;11.876;2022-09-01T22:52:02;3.15;;;2.33;;
23588;SDS011;11972;48.078;11.876;2022-09-01T22:56:11;3.90;;;2.50;;
23588;SDS011;11972;48.078;11.876;2022-09-01T23:00:14;3.72;;;2.50;;
23588;SDS011;11972;48.078;11.876;2022-09-01T23:04:14;4.80;;;2.50;;
23588;SDS011;11972;48.078;11.876;2022-09-01T23:08:15;2.88;;;2.33;;
23588;SDS011;11972;48.078;11.876;2022-09-01T23:12:16;2.53;;;2.25;;
23588;SDS011;11972;48.078;11.876;2022-09-01T23:16:16;2.58;;;2.38;;
23588;SDS011;11972;48.078;11.876;2022-09-01T23:20:17;3.20;;;2.28;;
23588;SDS011;11972;48.078;11.876;2022-09-01T23:24:18;3.92;;;2.60;;
23588;SDS011;11972;48.078;11.876;2022-09-01T23:28:19;2.80;;;2.60;;
23588;SDS011;11972;48.078;11.876;2022-09-01T23:32:19;4.53;;;2.60;;
23588;SDS011;11972;48.078;11.876;2022-09-01T23:36:21;3.10;;;2.90;;
23588;SDS011;11972;48.078;11.876;2022-09-01T23:40:24;2.95;;;2.47;;
23588;SDS011;11972;48.078;11.876;2022-09-01T23:44:24;3.10;;;2.65;;
23588;SDS011;11972;48.078;11.876;2022-09-01T23:48:25;4.75;;;2.80;;
23588;SDS011;11972;48.078;11.876;2022-09-01T23:52:26;4.05;;;3.03;;
23588;SDS011;11972;48.078;11.876;2022-09-01T23:56:26;3.40;;;3.00;;
